createdAt,value
2018-08-06T00:01:22.493Z,14.55
2018-08-06T00:03:50.961Z,14.74
2018-08-06T00:06:19.282Z,14.77
2018-08-06T00:08:47.638Z,14.58
2018-08-06T00:11:15.998Z,14.51
2018-08-06T00:13:44.431Z,14.49
2018-08-06T00:16:12.801Z,14.48
2018-08-06T00:18:41.334Z,14.53
2018-08-06T00:21:09.786Z,14.61
2018-08-06T00:23:38.190Z,14.43
2018-08-06T00:26:06.600Z,14.46
2018-08-06T00:28:35.122Z,14.28
2018-08-06T00:31:03.495Z,14.06
2018-08-06T00:33:31.895Z,13.99
2018-08-06T00:36:00.271Z,13.97
2018-08-06T00:38:28.608Z,14.03
2018-08-06T00:40:56.895Z,14.04
2018-08-06T00:43:25.229Z,14.07
2018-08-06T00:45:53.624Z,14.54
2018-08-06T00:48:21.925Z,13.90
2018-08-06T00:50:50.296Z,13.75
2018-08-06T00:53:18.575Z,13.78
2018-08-06T00:55:47.022Z,13.85
2018-08-06T00:58:15.353Z,13.93
2018-08-06T01:00:43.670Z,14.12
2018-08-06T01:03:12.012Z,13.82
2018-08-06T01:05:40.557Z,13.78
2018-08-06T01:08:08.979Z,13.71
2018-08-06T01:10:37.265Z,13.84
2018-08-06T01:13:11.221Z,13.93
2018-08-06T01:15:39.613Z,14.07
2018-08-06T01:18:08.196Z,14.09
2018-08-06T01:20:36.522Z,13.89
2018-08-06T01:23:04.830Z,13.53
2018-08-06T01:25:33.222Z,13.35
2018-08-06T01:28:01.507Z,13.41
2018-08-06T01:30:30.038Z,13.40
2018-08-06T01:32:58.370Z,13.67
2018-08-06T01:35:26.657Z,13.74
2018-08-06T01:37:55.036Z,13.40
2018-08-06T01:40:23.392Z,13.12
2018-08-06T01:42:51.691Z,13.08
2018-08-06T01:45:20.015Z,13.23
2018-08-06T01:47:48.373Z,13.18
2018-08-06T01:50:16.879Z,13.00
2018-08-06T01:52:45.242Z,12.99
2018-08-06T01:55:13.635Z,13.29
2018-08-06T01:57:42.203Z,13.08
2018-08-06T02:00:12.739Z,13.00
2018-08-06T02:02:41.085Z,12.92
2018-08-06T02:05:09.918Z,12.88
2018-08-06T02:07:38.694Z,12.86
2018-08-06T02:10:09.954Z,13.03
2018-08-06T02:12:38.342Z,13.04
2018-08-06T02:15:08.129Z,13.29
2018-08-06T02:17:36.798Z,13.21
2018-08-06T02:20:06.147Z,12.88
2018-08-06T02:22:34.507Z,12.61
2018-08-06T02:25:02.905Z,12.58
2018-08-06T02:27:31.299Z,12.89
2018-08-06T02:29:59.696Z,12.84
2018-08-06T02:32:28.046Z,12.76
2018-08-06T02:34:56.377Z,12.59
2018-08-06T02:37:24.837Z,12.56
2018-08-06T02:39:53.290Z,12.49
2018-08-06T02:42:21.674Z,12.48
2018-08-06T02:44:50.018Z,12.57
2018-08-06T02:47:18.387Z,12.70
2018-08-06T02:49:46.681Z,12.61
2018-08-06T02:52:15.048Z,12.31
2018-08-06T02:54:43.380Z,12.32
2018-08-06T02:57:11.734Z,12.32
2018-08-06T02:59:40.060Z,12.38
2018-08-06T03:02:08.412Z,12.32
2018-08-06T03:04:36.791Z,12.16
2018-08-06T03:07:05.471Z,12.07
2018-08-06T03:09:33.866Z,12.01
2018-08-06T03:12:02.195Z,12.07
2018-08-06T03:14:30.670Z,12.02
2018-08-06T03:16:59.019Z,11.96
2018-08-06T03:19:27.396Z,12.09
2018-08-06T03:21:56.959Z,12.44
2018-08-06T03:24:25.311Z,12.75
2018-08-06T03:26:53.626Z,12.26
2018-08-06T03:29:21.982Z,11.98
2018-08-06T03:31:50.311Z,11.93
2018-08-06T03:34:18.665Z,11.75
2018-08-06T03:36:47.027Z,12.00
2018-08-06T03:39:15.387Z,12.20
2018-08-06T03:41:43.728Z,12.57
2018-08-06T03:44:12.158Z,12.32
2018-08-06T03:46:40.638Z,12.04
2018-08-06T03:49:08.927Z,12.07
2018-08-06T03:51:37.234Z,12.09
2018-08-06T03:54:05.635Z,12.23
2018-08-06T03:56:33.984Z,12.22
2018-08-06T03:59:02.356Z,12.00
2018-08-06T04:01:30.954Z,11.73
2018-08-06T04:03:59.303Z,11.58
2018-08-06T04:06:27.667Z,11.75
2018-08-06T04:08:55.994Z,11.98
2018-08-06T04:11:24.400Z,12.14
2018-08-06T04:13:53.252Z,12.29
2018-08-06T04:16:21.643Z,12.38
2018-08-06T04:18:49.995Z,12.34
2018-08-06T04:21:18.346Z,11.94
2018-08-06T04:23:46.722Z,11.73
2018-08-06T04:26:15.098Z,11.89
2018-08-06T04:28:43.491Z,12.02
2018-08-06T04:31:11.883Z,12.27
2018-08-06T04:33:40.216Z,12.58
2018-08-06T04:36:08.565Z,12.73
2018-08-06T04:38:37.017Z,12.79
2018-08-06T04:41:05.332Z,12.74
2018-08-06T04:43:33.690Z,12.94
2018-08-06T04:46:02.202Z,13.05
2018-08-06T04:48:30.732Z,13.28
2018-08-06T04:50:59.047Z,13.49
2018-08-06T04:53:27.728Z,13.24
2018-08-06T04:55:56.715Z,13.08
2018-08-06T04:58:25.223Z,13.13
2018-08-06T05:00:53.558Z,13.29
2018-08-06T05:03:22.055Z,13.48
2018-08-06T05:05:50.386Z,13.84
2018-08-06T05:08:18.774Z,14.04
2018-08-06T05:10:47.246Z,14.24
2018-08-06T05:13:15.594Z,14.32
2018-08-06T05:15:43.934Z,14.33
2018-08-06T05:18:12.483Z,14.34
2018-08-06T05:20:41.028Z,14.55
2018-08-06T05:23:09.435Z,14.78
2018-08-06T05:25:37.930Z,14.88
2018-08-06T05:28:06.960Z,14.91
2018-08-06T05:30:35.268Z,14.97
2018-08-06T05:33:03.670Z,15.02
2018-08-06T05:35:32.039Z,15.19
2018-08-06T05:38:00.519Z,15.42
2018-08-06T05:40:28.853Z,15.47
2018-08-06T05:42:57.223Z,15.55
2018-08-06T05:45:25.653Z,15.72
2018-08-06T05:47:54.193Z,15.87
2018-08-06T05:50:22.520Z,16.01
2018-08-06T05:52:51.150Z,16.10
2018-08-06T05:55:19.580Z,16.18
2018-08-06T05:57:47.931Z,16.28
2018-08-06T06:00:18.431Z,16.36
2018-08-06T06:02:47.366Z,16.45
2018-08-06T06:05:15.737Z,16.48
2018-08-06T06:07:44.184Z,16.55
2018-08-06T06:10:14.481Z,16.61
2018-08-06T06:12:42.876Z,16.83
2018-08-06T06:15:14.267Z,16.86
2018-08-06T06:17:43.231Z,16.91
2018-08-06T06:20:11.693Z,17.06
2018-08-06T06:22:40.048Z,17.09
2018-08-06T06:25:11.054Z,17.25
2018-08-06T06:27:39.547Z,17.26
2018-08-06T06:30:10.287Z,17.37
2018-08-06T06:32:38.675Z,17.47
2018-08-06T06:35:07.211Z,17.56
2018-08-06T06:37:35.712Z,17.69
2018-08-06T06:40:04.258Z,17.67
2018-08-06T06:42:32.674Z,17.84
2018-08-06T06:45:01.117Z,17.89
2018-08-06T06:47:29.468Z,18.05
2018-08-06T06:49:58.083Z,18.17
2018-08-06T06:52:26.402Z,18.28
2018-08-06T06:54:54.783Z,18.42
2018-08-06T06:57:23.114Z,18.54
2018-08-06T06:59:51.462Z,18.62
2018-08-06T07:02:19.905Z,18.71
2018-08-06T07:04:48.250Z,18.78
2018-08-06T07:07:16.611Z,18.88
2018-08-06T07:09:45.767Z,18.98
2018-08-06T07:12:14.256Z,19.02
2018-08-06T07:14:42.590Z,19.14
2018-08-06T07:17:10.980Z,19.17
2018-08-06T07:19:39.325Z,19.25
2018-08-06T07:22:07.753Z,19.32
2018-08-06T07:24:36.110Z,19.37
2018-08-06T07:27:04.508Z,19.52
2018-08-06T07:29:32.889Z,19.69
2018-08-06T07:32:01.296Z,19.79
2018-08-06T07:34:29.669Z,19.88
2018-08-06T07:36:58.278Z,19.91
2018-08-06T07:39:26.629Z,20.02
2018-08-06T07:41:55.010Z,20.11
2018-08-06T07:44:23.353Z,20.18
2018-08-06T07:46:51.803Z,20.31
2018-08-06T07:49:20.525Z,20.42
2018-08-06T07:51:48.895Z,20.45
2018-08-06T07:54:17.251Z,20.55
2018-08-06T07:56:45.627Z,20.69
2018-08-06T07:59:13.955Z,20.76
2018-08-06T08:01:42.525Z,20.91
2018-08-06T08:04:10.903Z,20.94
2018-08-06T08:06:39.275Z,20.94
2018-08-06T08:09:09.488Z,21.12
2018-08-06T08:11:38.266Z,21.18
2018-08-06T08:14:06.699Z,21.22
2018-08-06T08:16:35.930Z,21.24
2018-08-06T08:19:04.291Z,21.37
2018-08-06T08:21:32.648Z,21.26
2018-08-06T08:24:01.254Z,21.52
2018-08-06T08:26:29.650Z,21.58
2018-08-06T08:28:58.303Z,21.69
2018-08-06T08:31:27.037Z,21.74
2018-08-06T08:33:55.428Z,21.76
2018-08-06T08:36:23.768Z,21.91
2018-08-06T08:38:52.088Z,21.92
2018-08-06T08:41:20.587Z,22.19
2018-08-06T08:43:48.930Z,22.26
2018-08-06T08:46:17.320Z,22.30
2018-08-06T08:48:45.647Z,22.43
2018-08-06T08:51:14.040Z,22.54
2018-08-06T08:53:42.455Z,22.53
2018-08-06T08:56:10.847Z,22.48
2018-08-06T08:58:39.271Z,22.48
2018-08-06T09:01:07.562Z,22.61
2018-08-06T09:03:35.912Z,22.64
2018-08-06T09:06:04.500Z,22.62
2018-08-06T09:08:33.287Z,22.61
2018-08-06T09:11:01.978Z,22.74
2018-08-06T09:13:30.397Z,22.89
2018-08-06T09:15:58.803Z,22.98
2018-08-06T09:18:27.227Z,22.99
2018-08-06T09:20:55.621Z,22.96
2018-08-06T09:23:23.953Z,23.08
2018-08-06T09:25:52.263Z,23.45
2018-08-06T09:28:20.763Z,23.53
2018-08-06T09:30:49.110Z,23.43
2018-08-06T09:33:17.413Z,23.47
2018-08-06T09:35:45.798Z,23.41
2018-08-06T09:38:14.122Z,23.61
2018-08-06T09:40:42.510Z,23.74
2018-08-06T09:43:10.994Z,23.93
2018-08-06T09:45:39.378Z,23.98
2018-08-06T09:48:07.738Z,23.97
2018-08-06T09:50:36.192Z,24.11
2018-08-06T09:53:04.592Z,24.18
2018-08-06T09:55:32.995Z,24.21
2018-08-06T09:58:01.282Z,24.25
2018-08-06T10:00:34.946Z,24.37
2018-08-06T10:03:03.511Z,24.36
2018-08-06T10:05:31.901Z,24.41
2018-08-06T10:08:00.226Z,24.59
2018-08-06T10:10:28.581Z,24.62
2018-08-06T10:12:57.047Z,24.85
2018-08-06T10:15:25.362Z,25.14
2018-08-06T10:17:54.781Z,25.08
2018-08-06T10:20:24.375Z,24.94
2018-08-06T10:22:52.686Z,25.10
2018-08-06T10:25:21.027Z,25.13
2018-08-06T10:27:49.481Z,25.28
2018-08-06T10:30:19.213Z,25.39
2018-08-06T10:32:47.485Z,25.49
2018-08-06T10:35:16.934Z,25.32
2018-08-06T10:37:45.446Z,25.45
2018-08-06T10:40:18.551Z,25.56
2018-08-06T10:42:46.937Z,25.66
2018-08-06T10:45:17.214Z,25.71
2018-08-06T10:47:45.574Z,25.86
2018-08-06T10:50:13.891Z,25.90
2018-08-06T10:52:42.231Z,25.88
2018-08-06T10:55:11.073Z,26.05
2018-08-06T10:57:40.377Z,26.16
2018-08-06T11:00:16.211Z,26.45
2018-08-06T11:02:44.695Z,26.38
2018-08-06T11:05:14.012Z,26.63
2018-08-06T11:07:42.359Z,26.74
2018-08-06T11:10:12.913Z,26.58
2018-08-06T11:12:41.838Z,26.74
2018-08-06T11:15:15.436Z,26.85
2018-08-06T11:17:43.762Z,26.72
2018-08-06T11:20:13.051Z,26.94
2018-08-06T11:22:41.659Z,26.85
2018-08-06T11:25:11.437Z,27.04
2018-08-06T11:27:39.745Z,27.10
2018-08-06T11:30:12.171Z,27.00
2018-08-06T11:32:40.466Z,27.23
2018-08-06T11:35:09.538Z,27.25
2018-08-06T11:37:37.976Z,27.30
2018-08-06T11:40:07.597Z,27.25
2018-08-06T11:42:36.257Z,27.67
2018-08-06T11:45:05.050Z,27.39
2018-08-06T11:47:33.535Z,27.48
2018-08-06T11:50:01.870Z,27.65
2018-08-06T11:52:30.147Z,27.80
2018-08-06T11:54:58.490Z,27.90
2018-08-06T11:57:26.867Z,27.93
2018-08-06T11:59:55.152Z,27.75
2018-08-06T12:02:23.615Z,27.82
2018-08-06T12:04:52.117Z,27.84
2018-08-06T12:07:20.618Z,27.89
2018-08-06T12:09:49.114Z,27.99
2018-08-06T12:12:17.658Z,28.04
2018-08-06T12:14:45.982Z,28.10
2018-08-06T12:17:14.535Z,27.98
2018-08-06T12:19:42.979Z,27.97
2018-08-06T12:22:11.419Z,28.18
2018-08-06T12:24:39.744Z,28.29
2018-08-06T12:27:08.234Z,28.16
2018-08-06T12:29:36.919Z,28.20
2018-08-06T12:32:05.427Z,28.14
2018-08-06T12:34:34.106Z,28.18
2018-08-06T12:37:02.559Z,28.04
2018-08-06T12:39:31.069Z,27.92
2018-08-06T12:41:59.477Z,28.22
2018-08-06T12:44:28.032Z,28.15
2018-08-06T12:46:56.448Z,28.20
2018-08-06T12:49:24.803Z,28.41
2018-08-06T12:51:53.273Z,28.76
2018-08-06T12:54:21.775Z,28.84
2018-08-06T12:56:50.311Z,28.72
2018-08-06T12:59:18.807Z,28.82
2018-08-06T13:01:47.320Z,28.39
2018-08-06T13:04:15.938Z,28.31
2018-08-06T13:06:44.335Z,28.61
2018-08-06T13:09:13.112Z,28.86
2018-08-06T13:11:41.814Z,29.04
2018-08-06T13:14:10.228Z,28.95
2018-08-06T13:16:38.581Z,29.06
2018-08-06T13:19:07.267Z,29.20
2018-08-06T13:21:36.044Z,28.78
2018-08-06T13:24:04.698Z,28.95
2018-08-06T13:26:33.167Z,29.11
2018-08-06T13:29:01.942Z,29.16
2018-08-06T13:31:30.287Z,29.23
2018-08-06T13:33:58.642Z,29.05
2018-08-06T13:36:26.959Z,29.28
2018-08-06T13:38:55.335Z,29.03
2018-08-06T13:41:23.742Z,29.10
2018-08-06T13:43:52.042Z,29.32
2018-08-06T13:46:20.341Z,29.24
2018-08-06T13:48:48.662Z,29.36
2018-08-06T13:51:16.940Z,29.35
2018-08-06T13:53:45.400Z,29.45
2018-08-06T13:56:13.756Z,29.46
2018-08-06T13:58:42.085Z,29.51
2018-08-06T14:01:10.502Z,29.63
2018-08-06T14:03:38.831Z,29.67
2018-08-06T14:06:07.174Z,29.66
2018-08-06T14:08:35.450Z,29.60
2018-08-06T14:11:03.848Z,29.47
2018-08-06T14:13:32.188Z,29.55
2018-08-06T14:16:00.685Z,29.68
2018-08-06T14:18:29.112Z,29.68
2018-08-06T14:20:57.472Z,29.58
2018-08-06T14:23:26.444Z,29.70
2018-08-06T14:25:54.796Z,29.74
2018-08-06T14:28:23.126Z,29.65
2018-08-06T14:30:51.483Z,29.80
2018-08-06T14:33:19.846Z,30.00
2018-08-06T14:35:48.146Z,30.01
2018-08-06T14:38:16.483Z,29.67
2018-08-06T14:40:44.954Z,29.55
2018-08-06T14:43:13.289Z,29.55
2018-08-06T14:45:41.619Z,29.73
2018-08-06T14:48:09.969Z,29.71
2018-08-06T14:50:38.315Z,29.68
2018-08-06T14:53:06.682Z,29.91
2018-08-06T14:55:35.048Z,29.78
2018-08-06T14:58:03.421Z,29.93
2018-08-06T15:00:31.690Z,29.76
2018-08-06T15:02:59.973Z,29.81
2018-08-06T15:05:28.324Z,29.80
2018-08-06T15:07:56.674Z,29.70
2018-08-06T15:10:24.998Z,29.80
2018-08-06T15:12:53.306Z,29.81
2018-08-06T15:15:21.723Z,29.76
2018-08-06T15:17:50.048Z,29.77
2018-08-06T15:20:19.332Z,29.71
2018-08-06T15:22:47.898Z,29.67
2018-08-06T15:25:17.827Z,29.79
2018-08-06T15:27:52.618Z,29.58
2018-08-06T15:30:21.013Z,29.79
2018-08-06T15:32:49.354Z,29.86
2018-08-06T15:35:17.688Z,29.88
2018-08-06T15:37:46.057Z,29.65
2018-08-06T15:40:17.408Z,29.72
2018-08-06T15:42:45.777Z,29.76
2018-08-06T15:45:14.631Z,29.78
2018-08-06T15:47:44.001Z,29.67
2018-08-06T15:50:15.613Z,29.62
2018-08-06T15:52:44.016Z,29.52
2018-08-06T15:55:12.643Z,29.69
2018-08-06T15:57:41.258Z,29.64
2018-08-06T16:00:11.980Z,29.51
2018-08-06T16:02:40.363Z,29.60
2018-08-06T16:05:09.584Z,29.56
2018-08-06T16:07:38.105Z,29.57
2018-08-06T16:10:07.767Z,29.37
2018-08-06T16:12:36.077Z,29.47
2018-08-06T16:15:05.112Z,29.37
2018-08-06T16:17:33.410Z,29.43
2018-08-06T16:20:01.756Z,29.48
2018-08-06T16:22:30.285Z,29.46
2018-08-06T16:24:58.613Z,29.49
2018-08-06T16:27:26.978Z,29.38
2018-08-06T16:29:55.499Z,29.38
2018-08-06T16:32:23.860Z,29.59
2018-08-06T16:34:52.223Z,29.58
2018-08-06T16:37:20.557Z,29.57
2018-08-06T16:39:48.961Z,29.69
2018-08-06T16:42:17.359Z,29.70
2018-08-06T16:44:45.682Z,29.70
2018-08-06T16:47:14.167Z,29.79
2018-08-06T16:49:42.539Z,29.84
2018-08-06T16:52:11.001Z,29.77
2018-08-06T16:54:39.314Z,29.85
2018-08-06T16:57:07.681Z,29.77
2018-08-06T16:59:36.031Z,29.85
2018-08-06T17:02:04.379Z,29.83
2018-08-06T17:04:32.773Z,29.83
2018-08-06T17:07:01.163Z,29.81
2018-08-06T17:09:29.481Z,29.82
2018-08-06T17:11:57.790Z,29.71
2018-08-06T17:14:26.842Z,29.70
2018-08-06T17:16:55.194Z,29.71
2018-08-06T17:19:23.725Z,29.61
2018-08-06T17:21:52.275Z,29.51
2018-08-06T17:24:20.683Z,29.51
2018-08-06T17:26:49.194Z,29.57
2018-08-06T17:29:17.591Z,29.48
2018-08-06T17:31:45.902Z,29.48
2018-08-06T17:34:14.245Z,29.55
2018-08-06T17:36:42.678Z,29.49
2018-08-06T17:39:11.624Z,29.46
2018-08-06T17:41:40.583Z,29.28
2018-08-06T17:44:08.980Z,29.25
2018-08-06T17:46:37.317Z,29.18
2018-08-06T17:49:06.192Z,29.04
2018-08-06T17:51:34.580Z,28.88
2018-08-06T17:54:03.150Z,28.82
2018-08-06T17:56:31.526Z,28.83
2018-08-06T17:58:59.855Z,28.81
2018-08-06T18:01:28.198Z,28.66
2018-08-06T18:03:56.779Z,28.50
2018-08-06T18:06:25.267Z,28.00
2018-08-06T18:08:53.670Z,27.81
2018-08-06T18:11:22.298Z,27.54
2018-08-06T18:13:51.006Z,27.08
2018-08-06T18:16:19.359Z,26.63
2018-08-06T18:18:47.738Z,25.93
2018-08-06T18:21:16.092Z,25.63
2018-08-06T18:23:44.410Z,25.43
2018-08-06T18:26:13.000Z,25.26
2018-08-06T18:28:41.380Z,25.22
2018-08-06T18:31:09.757Z,25.06
2018-08-06T18:33:38.139Z,24.82
2018-08-06T18:36:06.553Z,24.62
2018-08-06T18:38:35.136Z,24.32
2018-08-06T18:41:04.765Z,24.15
2018-08-06T18:43:33.186Z,24.06
2018-08-06T18:46:01.554Z,24.08
2018-08-06T18:48:29.831Z,23.97
2018-08-06T18:50:58.375Z,23.87
2018-08-06T18:53:26.987Z,23.80
2018-08-06T18:55:55.503Z,23.75
2018-08-06T18:58:24.286Z,23.61
2018-08-06T19:01:19.651Z,23.46
2018-08-06T19:03:49.504Z,23.39
2018-08-06T19:06:17.907Z,23.18
2018-08-06T19:08:46.427Z,23.18
2018-08-06T19:11:14.974Z,22.89
2018-08-06T19:13:48.706Z,22.78
2018-08-06T19:16:17.055Z,22.80
2018-08-06T19:18:50.775Z,22.66
2018-08-06T19:21:19.492Z,22.44
2018-08-06T19:23:47.868Z,22.49
2018-08-06T19:26:16.236Z,22.26
2018-08-06T19:28:44.578Z,22.02
2018-08-06T19:31:18.178Z,22.08
2018-08-06T19:33:46.617Z,21.83
2018-08-06T19:36:14.927Z,21.76
2018-08-06T19:38:43.302Z,21.75
2018-08-06T19:41:11.627Z,21.77
2018-08-06T19:43:40.200Z,21.94
2018-08-06T19:46:09.518Z,21.97
2018-08-06T19:48:37.913Z,21.72
2018-08-06T19:51:08.852Z,21.49
2018-08-06T19:53:48.402Z,21.49
2018-08-06T19:56:18.054Z,21.75
2018-08-06T19:58:47.722Z,21.57
2018-08-06T20:01:16.333Z,21.26
2018-08-06T20:03:45.972Z,20.78
2018-08-06T20:06:17.689Z,20.69
2018-08-06T20:08:50.258Z,20.63
2018-08-06T20:11:22.795Z,20.75
2018-08-06T20:13:53.035Z,20.72
2018-08-06T20:16:22.101Z,20.73
2018-08-06T20:19:01.970Z,20.57
2018-08-06T20:21:34.446Z,20.47
2018-08-06T20:24:15.845Z,20.55
2018-08-06T20:26:48.118Z,20.58
2018-08-06T20:29:18.489Z,20.47
2018-08-06T20:32:05.251Z,20.31
2018-08-06T20:40:24.802Z,19.81
2018-08-06T20:43:15.983Z,19.72
2018-08-06T20:46:07.987Z,19.78
2018-08-06T20:48:39.113Z,19.98
2018-08-06T20:51:12.707Z,20.06
2018-08-06T20:53:41.029Z,20.00
2018-08-06T20:56:09.486Z,19.86
2018-08-06T20:58:38.793Z,19.70
2018-08-06T21:01:10.532Z,19.46
2018-08-06T21:03:39.973Z,19.41
2018-08-06T21:06:08.409Z,19.17
2018-08-06T21:08:38.677Z,19.24
2018-08-06T21:11:07.679Z,19.31
2018-08-06T21:13:36.229Z,19.49
2018-08-06T21:16:07.067Z,19.34
2018-08-06T21:18:36.944Z,19.19
2018-08-06T21:21:05.390Z,19.07
2018-08-06T21:23:33.806Z,18.71
2018-08-06T21:26:03.225Z,18.59
2018-08-06T21:28:34.082Z,18.77
2018-08-06T21:31:02.405Z,19.09
2018-08-06T21:33:33.339Z,19.19
2018-08-06T21:36:03.973Z,19.04
2018-08-06T21:38:34.005Z,18.93
2018-08-06T21:41:02.340Z,19.08
2018-08-06T21:43:30.762Z,18.82
2018-08-06T21:45:59.147Z,18.86
2018-08-06T21:48:28.097Z,18.31
2018-08-06T21:50:56.741Z,18.33
2018-08-06T21:53:26.528Z,18.75
2018-08-06T21:55:55.761Z,18.60
2018-08-06T21:58:26.078Z,18.84
2018-08-06T22:00:54.913Z,18.95
2018-08-06T22:03:23.892Z,18.65
2018-08-06T22:05:53.327Z,18.42
2018-08-06T22:08:23.626Z,18.46
2018-08-06T22:10:52.010Z,18.40
2018-08-06T22:13:20.341Z,18.67
2018-08-06T22:15:55.449Z,18.79
2018-08-06T22:18:25.150Z,18.30
2018-08-06T22:20:54.253Z,18.27
2018-08-06T22:23:23.675Z,18.13
2018-08-06T22:25:52.643Z,18.01
2018-08-06T22:28:22.948Z,18.11
2018-08-06T22:30:51.360Z,18.14
2018-08-06T22:33:20.338Z,17.93
2018-08-06T22:35:48.703Z,17.64
2018-08-06T22:38:17.712Z,17.62
2018-08-06T22:40:46.909Z,17.44
2018-08-06T22:43:15.962Z,17.67
2018-08-06T22:45:46.706Z,18.00
2018-08-06T22:48:15.177Z,17.93
2018-08-06T22:50:44.889Z,17.82
2018-08-06T22:53:14.805Z,17.55
2018-08-06T22:55:54.379Z,17.56
2018-08-06T22:58:24.521Z,17.41
2018-08-06T23:04:16.281Z,17.63
2018-08-06T23:06:44.658Z,17.47
2018-08-06T23:09:13.388Z,17.37
2018-08-06T23:11:42.218Z,17.07
2018-08-06T23:14:10.537Z,16.85
2018-08-06T23:16:39.400Z,16.79
2018-08-06T23:19:07.733Z,16.97
2018-08-06T23:21:36.217Z,17.01
2018-08-06T23:24:05.127Z,17.16
2018-08-06T23:26:33.995Z,17.40
2018-08-06T23:29:02.982Z,17.28
2018-08-06T23:31:31.384Z,17.06
2018-08-06T23:33:59.844Z,16.91
2018-08-06T23:36:28.266Z,16.72
2018-08-06T23:38:56.781Z,16.71
2018-08-06T23:41:25.269Z,16.77
2018-08-06T23:43:53.657Z,16.95
2018-08-06T23:46:22.073Z,17.05
2018-08-06T23:48:50.357Z,17.05
2018-08-06T23:51:18.814Z,16.95
2018-08-06T23:53:47.270Z,16.68
2018-08-06T23:56:15.733Z,16.78
2018-08-06T23:58:44.121Z,16.60
